sensor_id;sensor_type;location;lat;lon;timestamp;temperature;humidity
42841;DHT22;28491;46.898;7.660;2022-12-11T00:00:45;-1.40;78.60
42841;DHT22;28491;46.898;7.660;2022-12-11T00:03:11;-1.50;78.80
42841;DHT22;28491;46.898;7.660;2022-12-11T00:05:40;-1.50;77.60
42841;DHT22;28491;46.898;7.660;2022-12-11T00:08:05;-1.60;77.10
42841;DHT22;28491;46.898;7.660;2022-12-11T00:10:31;-1.70;76.70
42841;DHT22;28491;46.898;7.660;2022-12-11T00:12:56;-1.70;76.50
42841;DHT22;28491;46.898;7.660;2022-12-11T00:15:22;-1.70;76.40
42841;DHT22;28491;46.898;7.660;2022-12-11T00:17:48;-1.70;77.20
42841;DHT22;28491;46.898;7.660;2022-12-11T00:20:13;-1.80;76.40
42841;DHT22;28491;46.898;7.660;2022-12-11T00:22:39;-1.70;77.80
42841;DHT22;28491;46.898;7.660;2022-12-11T00:25:05;-1.80;76.20
42841;DHT22;28491;46.898;7.660;2022-12-11T00:27:31;-1.80;76.30
42841;DHT22;28491;46.898;7.660;2022-12-11T00:29:56;-1.80;77.30
42841;DHT22;28491;46.898;7.660;2022-12-11T00:32:22;-1.90;77.10
42841;DHT22;28491;46.898;7.660;2022-12-11T00:34:47;-2.00;77.70
42841;DHT22;28491;46.898;7.660;2022-12-11T00:37:13;-1.90;78.10
42841;DHT22;28491;46.898;7.660;2022-12-11T00:39:38;-1.90;76.90
42841;DHT22;28491;46.898;7.660;2022-12-11T00:42:05;-1.90;78.50
42841;DHT22;28491;46.898;7.660;2022-12-11T00:44:31;-1.90;79.00
42841;DHT22;28491;46.898;7.660;2022-12-11T00:46:56;-1.90;79.80
42841;DHT22;28491;46.898;7.660;2022-12-11T00:49:22;-1.90;80.30
42841;DHT22;28491;46.898;7.660;2022-12-11T00:51:47;-1.80;80.20
42841;DHT22;28491;46.898;7.660;2022-12-11T00:54:13;-1.80;79.90
42841;DHT22;28491;46.898;7.660;2022-12-11T00:56:38;-1.80;80.20
42841;DHT22;28491;46.898;7.660;2022-12-11T00:59:04;-1.80;80.80
42841;DHT22;28491;46.898;7.660;2022-12-11T01:01:29;-1.80;80.80
42841;DHT22;28491;46.898;7.660;2022-12-11T01:03:55;-1.70;82.70
42841;DHT22;28491;46.898;7.660;2022-12-11T01:06:24;-1.80;80.90
42841;DHT22;28491;46.898;7.660;2022-12-11T01:08:50;-1.80;82.40
42841;DHT22;28491;46.898;7.660;2022-12-11T01:11:39;-1.70;83.40
42841;DHT22;28491;46.898;7.660;2022-12-11T01:14:05;-1.80;82.10
42841;DHT22;28491;46.898;7.660;2022-12-11T01:16:31;-1.80;81.20
42841;DHT22;28491;46.898;7.660;2022-12-11T01:18:57;-1.70;79.90
42841;DHT22;28491;46.898;7.660;2022-12-11T01:21:23;-1.70;79.80
42841;DHT22;28491;46.898;7.660;2022-12-11T01:23:49;-1.60;80.80
42841;DHT22;28491;46.898;7.660;2022-12-11T01:26:16;-1.60;81.60
42841;DHT22;28491;46.898;7.660;2022-12-11T01:28:42;-1.60;75.10
42841;DHT22;28491;46.898;7.660;2022-12-11T01:31:09;-1.50;75.10
42841;DHT22;28491;46.898;7.660;2022-12-11T01:33:35;-1.60;74.40
42841;DHT22;28491;46.898;7.660;2022-12-11T01:36:06;-1.60;74.20
42841;DHT22;28491;46.898;7.660;2022-12-11T01:38:32;-1.60;74.40
42841;DHT22;28491;46.898;7.660;2022-12-11T01:40:57;-1.60;73.20
42841;DHT22;28491;46.898;7.660;2022-12-11T01:43:23;-1.60;73.30
42841;DHT22;28491;46.898;7.660;2022-12-11T01:45:48;-1.70;72.10
42841;DHT22;28491;46.898;7.660;2022-12-11T01:48:18;-1.80;73.00
42841;DHT22;28491;46.898;7.660;2022-12-11T01:50:51;-1.80;73.70
42841;DHT22;28491;46.898;7.660;2022-12-11T01:53:21;-1.70;75.90
42841;DHT22;28491;46.898;7.660;2022-12-11T01:55:50;-1.70;76.00
42841;DHT22;28491;46.898;7.660;2022-12-11T01:58:18;-1.80;77.20
42841;DHT22;28491;46.898;7.660;2022-12-11T02:00:45;-1.80;78.00
42841;DHT22;28491;46.898;7.660;2022-12-11T02:03:10;-1.80;78.40
42841;DHT22;28491;46.898;7.660;2022-12-11T02:05:36;-1.80;78.80
42841;DHT22;28491;46.898;7.660;2022-12-11T02:08:02;-1.80;78.00
42841;DHT22;28491;46.898;7.660;2022-12-11T02:11:10;-1.80;78.90
42841;DHT22;28491;46.898;7.660;2022-12-11T02:13:54;-1.90;78.00
42841;DHT22;28491;46.898;7.660;2022-12-11T02:16:38;-1.90;77.80
42841;DHT22;28491;46.898;7.660;2022-12-11T02:22:53;-2.00;78.90
42841;DHT22;28491;46.898;7.660;2022-12-11T02:28:59;-1.90;80.20
42841;DHT22;28491;46.898;7.660;2022-12-11T02:31:23;-1.80;79.90
42841;DHT22;28491;46.898;7.660;2022-12-11T02:36:34;-2.10;77.20
42841;DHT22;28491;46.898;7.660;2022-12-11T02:39:02;-2.10;78.30
42841;DHT22;28491;46.898;7.660;2022-12-11T02:41:29;-2.00;79.80
42841;DHT22;28491;46.898;7.660;2022-12-11T02:43:57;-2.00;79.20
42841;DHT22;28491;46.898;7.660;2022-12-11T02:46:25;-2.00;79.70
42841;DHT22;28491;46.898;7.660;2022-12-11T02:48:52;-2.00;80.10
42841;DHT22;28491;46.898;7.660;2022-12-11T02:51:23;-2.00;80.70
42841;DHT22;28491;46.898;7.660;2022-12-11T02:53:50;-1.90;80.60
42841;DHT22;28491;46.898;7.660;2022-12-11T02:56:23;-1.90;80.00
42841;DHT22;28491;46.898;7.660;2022-12-11T02:58:56;-1.90;79.80
42841;DHT22;28491;46.898;7.660;2022-12-11T03:01:24;-1.80;80.60
42841;DHT22;28491;46.898;7.660;2022-12-11T03:03:51;-1.80;79.50
42841;DHT22;28491;46.898;7.660;2022-12-11T03:06:19;-2.00;79.00
42841;DHT22;28491;46.898;7.660;2022-12-11T03:08:46;-2.10;79.10
42841;DHT22;28491;46.898;7.660;2022-12-11T03:11:12;-2.20;79.40
42841;DHT22;28491;46.898;7.660;2022-12-11T03:13:39;-2.40;78.00
42841;DHT22;28491;46.898;7.660;2022-12-11T03:19:34;-2.30;83.60
42841;DHT22;28491;46.898;7.660;2022-12-11T03:22:16;-2.30;84.10
42841;DHT22;28491;46.898;7.660;2022-12-11T03:24:59;-2.30;85.80
42841;DHT22;28491;46.898;7.660;2022-12-11T03:27:33;-2.40;84.30
42841;DHT22;28491;46.898;7.660;2022-12-11T03:30:07;-2.30;84.40
42841;DHT22;28491;46.898;7.660;2022-12-11T03:32:45;-2.30;84.50
42841;DHT22;28491;46.898;7.660;2022-12-11T03:35:24;-2.30;84.70
42841;DHT22;28491;46.898;7.660;2022-12-11T03:37:52;-2.20;84.40
42841;DHT22;28491;46.898;7.660;2022-12-11T03:40:20;-2.30;83.90
42841;DHT22;28491;46.898;7.660;2022-12-11T03:42:49;-2.30;83.30
42841;DHT22;28491;46.898;7.660;2022-12-11T03:45:17;-2.30;84.40
42841;DHT22;28491;46.898;7.660;2022-12-11T03:47:44;-2.30;84.30
42841;DHT22;28491;46.898;7.660;2022-12-11T03:50:13;-2.30;84.90
42841;DHT22;28491;46.898;7.660;2022-12-11T03:52:41;-2.40;84.60
42841;DHT22;28491;46.898;7.660;2022-12-11T03:55:08;-2.50;84.50
42841;DHT22;28491;46.898;7.660;2022-12-11T03:57:36;-2.60;83.40
42841;DHT22;28491;46.898;7.660;2022-12-11T04:00:14;-2.60;83.40
42841;DHT22;28491;46.898;7.660;2022-12-11T04:02:40;-2.60;85.90
42841;DHT22;28491;46.898;7.660;2022-12-11T04:05:07;-2.50;88.40
42841;DHT22;28491;46.898;7.660;2022-12-11T04:07:33;-2.40;89.50
42841;DHT22;28491;46.898;7.660;2022-12-11T04:09:58;-2.40;89.50
42841;DHT22;28491;46.898;7.660;2022-12-11T04:12:24;-2.50;88.40
42841;DHT22;28491;46.898;7.660;2022-12-11T04:14:50;-2.50;89.10
42841;DHT22;28491;46.898;7.660;2022-12-11T04:17:29;-2.50;90.10
42841;DHT22;28491;46.898;7.660;2022-12-11T04:20:13;-2.40;90.20
42841;DHT22;28491;46.898;7.660;2022-12-11T04:22:57;-2.40;90.70
42841;DHT22;28491;46.898;7.660;2022-12-11T04:25:41;-2.40;89.80
42841;DHT22;28491;46.898;7.660;2022-12-11T04:28:07;-2.40;89.50
42841;DHT22;28491;46.898;7.660;2022-12-11T04:30:32;-2.40;89.40
42841;DHT22;28491;46.898;7.660;2022-12-11T04:32:58;-2.40;88.50
42841;DHT22;28491;46.898;7.660;2022-12-11T04:35:23;-2.30;89.20
42841;DHT22;28491;46.898;7.660;2022-12-11T04:37:49;-2.30;89.00
42841;DHT22;28491;46.898;7.660;2022-12-11T04:40:17;-2.30;87.10
42841;DHT22;28491;46.898;7.660;2022-12-11T04:42:43;-2.30;85.70
42841;DHT22;28491;46.898;7.660;2022-12-11T04:45:09;-2.40;84.10
42841;DHT22;28491;46.898;7.660;2022-12-11T04:47:36;-2.50;83.90
42841;DHT22;28491;46.898;7.660;2022-12-11T04:50:04;-2.50;84.90
42841;DHT22;28491;46.898;7.660;2022-12-11T04:52:30;-2.60;83.90
42841;DHT22;28491;46.898;7.660;2022-12-11T04:54:56;-2.60;84.00
42841;DHT22;28491;46.898;7.660;2022-12-11T04:57:21;-2.80;83.00
42841;DHT22;28491;46.898;7.660;2022-12-11T04:59:47;-2.90;83.20
42841;DHT22;28491;46.898;7.660;2022-12-11T05:02:13;-3.00;84.30
42841;DHT22;28491;46.898;7.660;2022-12-11T05:04:39;-3.20;84.20
42841;DHT22;28491;46.898;7.660;2022-12-11T05:07:05;-3.20;84.50
42841;DHT22;28491;46.898;7.660;2022-12-11T05:09:31;-3.30;83.10
42841;DHT22;28491;46.898;7.660;2022-12-11T05:11:57;-3.30;81.90
42841;DHT22;28491;46.898;7.660;2022-12-11T05:14:22;-3.30;80.30
42841;DHT22;28491;46.898;7.660;2022-12-11T05:16:48;-3.40;77.70
42841;DHT22;28491;46.898;7.660;2022-12-11T05:19:14;-3.50;78.00
42841;DHT22;28491;46.898;7.660;2022-12-11T05:21:39;-3.50;77.10
42841;DHT22;28491;46.898;7.660;2022-12-11T05:24:05;-3.50;77.00
42841;DHT22;28491;46.898;7.660;2022-12-11T05:26:31;-3.60;75.80
42841;DHT22;28491;46.898;7.660;2022-12-11T05:28:56;-3.70;76.20
42841;DHT22;28491;46.898;7.660;2022-12-11T05:31:24;-3.80;76.30
42841;DHT22;28491;46.898;7.660;2022-12-11T05:33:51;-3.90;75.10
42841;DHT22;28491;46.898;7.660;2022-12-11T05:36:29;-4.00;74.30
42841;DHT22;28491;46.898;7.660;2022-12-11T05:38:57;-4.00;76.50
42841;DHT22;28491;46.898;7.660;2022-12-11T05:41:25;-4.00;78.60
42841;DHT22;28491;46.898;7.660;2022-12-11T05:43:51;-3.90;79.60
42841;DHT22;28491;46.898;7.660;2022-12-11T05:46:20;-4.00;78.30
42841;DHT22;28491;46.898;7.660;2022-12-11T05:48:46;-4.10;76.80
42841;DHT22;28491;46.898;7.660;2022-12-11T05:51:14;-4.30;73.60
42841;DHT22;28491;46.898;7.660;2022-12-11T05:53:40;-4.30;75.10
42841;DHT22;28491;46.898;7.660;2022-12-11T05:56:12;-4.30;74.60
42841;DHT22;28491;46.898;7.660;2022-12-11T05:58:38;-4.50;73.90
42841;DHT22;28491;46.898;7.660;2022-12-11T06:01:09;-4.50;74.90
42841;DHT22;28491;46.898;7.660;2022-12-11T06:03:34;-4.50;74.40
42841;DHT22;28491;46.898;7.660;2022-12-11T06:06:02;-4.50;74.00
42841;DHT22;28491;46.898;7.660;2022-12-11T06:08:27;-4.50;73.60
42841;DHT22;28491;46.898;7.660;2022-12-11T06:10:53;-4.60;73.80
42841;DHT22;28491;46.898;7.660;2022-12-11T06:13:19;-4.60;76.50
42841;DHT22;28491;46.898;7.660;2022-12-11T06:15:44;-4.70;77.00
42841;DHT22;28491;46.898;7.660;2022-12-11T06:18:10;-4.80;77.30
42841;DHT22;28491;46.898;7.660;2022-12-11T06:20:36;-4.90;78.30
42841;DHT22;28491;46.898;7.660;2022-12-11T06:23:01;-5.00;77.50
42841;DHT22;28491;46.898;7.660;2022-12-11T06:25:28;-5.10;77.30
42841;DHT22;28491;46.898;7.660;2022-12-11T06:27:54;-5.20;77.60
42841;DHT22;28491;46.898;7.660;2022-12-11T06:30:19;-5.20;77.50
42841;DHT22;28491;46.898;7.660;2022-12-11T06:32:45;-5.20;76.90
42841;DHT22;28491;46.898;7.660;2022-12-11T06:35:11;-5.00;79.10
42841;DHT22;28491;46.898;7.660;2022-12-11T06:37:37;-5.20;76.50
42841;DHT22;28491;46.898;7.660;2022-12-11T06:40:04;-5.50;76.50
42841;DHT22;28491;46.898;7.660;2022-12-11T06:42:30;-5.60;77.80
42841;DHT22;28491;46.898;7.660;2022-12-11T06:44:56;-5.60;78.80
42841;DHT22;28491;46.898;7.660;2022-12-11T06:47:27;-5.70;79.40
42841;DHT22;28491;46.898;7.660;2022-12-11T06:49:54;-5.60;82.20
42841;DHT22;28491;46.898;7.660;2022-12-11T06:52:21;-5.50;84.30
42841;DHT22;28491;46.898;7.660;2022-12-11T06:54:47;-5.50;83.20
42841;DHT22;28491;46.898;7.660;2022-12-11T06:57:13;-5.60;81.60
42841;DHT22;28491;46.898;7.660;2022-12-11T06:59:39;-5.80;78.10
42841;DHT22;28491;46.898;7.660;2022-12-11T07:02:05;-5.90;76.60
42841;DHT22;28491;46.898;7.660;2022-12-11T07:04:31;-5.80;75.90
42841;DHT22;28491;46.898;7.660;2022-12-11T07:06:56;-5.80;76.60
42841;DHT22;28491;46.898;7.660;2022-12-11T07:09:22;-5.80;75.70
42841;DHT22;28491;46.898;7.660;2022-12-11T07:11:51;-6.00;75.00
42841;DHT22;28491;46.898;7.660;2022-12-11T07:14:18;-6.10;72.80
42841;DHT22;28491;46.898;7.660;2022-12-11T07:16:44;-6.20;72.90
42841;DHT22;28491;46.898;7.660;2022-12-11T07:19:10;-6.20;73.40
42841;DHT22;28491;46.898;7.660;2022-12-11T07:21:35;-6.10;74.40
42841;DHT22;28491;46.898;7.660;2022-12-11T07:24:01;-6.20;73.00
42841;DHT22;28491;46.898;7.660;2022-12-11T07:26:27;-6.20;71.40
42841;DHT22;28491;46.898;7.660;2022-12-11T07:28:56;-6.20;70.90
42841;DHT22;28491;46.898;7.660;2022-12-11T07:31:24;-6.20;70.50
42841;DHT22;28491;46.898;7.660;2022-12-11T07:34:01;-6.20;70.40
42841;DHT22;28491;46.898;7.660;2022-12-11T07:36:28;-6.00;72.30
42841;DHT22;28491;46.898;7.660;2022-12-11T07:38:54;-6.00;70.60
42841;DHT22;28491;46.898;7.660;2022-12-11T07:41:20;-6.00;70.00
42841;DHT22;28491;46.898;7.660;2022-12-11T07:43:46;-6.10;69.60
42841;DHT22;28491;46.898;7.660;2022-12-11T07:46:16;-6.10;69.60
42841;DHT22;28491;46.898;7.660;2022-12-11T07:48:44;-6.10;68.40
42841;DHT22;28491;46.898;7.660;2022-12-11T07:51:24;-6.10;66.10
42841;DHT22;28491;46.898;7.660;2022-12-11T07:53:56;-6.30;66.10
42841;DHT22;28491;46.898;7.660;2022-12-11T07:56:23;-6.20;65.90
42841;DHT22;28491;46.898;7.660;2022-12-11T07:58:48;-6.20;65.90
42841;DHT22;28491;46.898;7.660;2022-12-11T08:01:19;-5.40;65.00
42841;DHT22;28491;46.898;7.660;2022-12-11T08:03:46;-3.70;52.80
42841;DHT22;28491;46.898;7.660;2022-12-11T08:06:11;-2.50;12.40
42841;DHT22;28491;46.898;7.660;2022-12-11T08:08:38;-2.20;1.00
42841;DHT22;28491;46.898;7.660;2022-12-11T08:11:06;-1.50;1.00
42841;DHT22;28491;46.898;7.660;2022-12-11T08:13:32;-1.40;1.00
42841;DHT22;28491;46.898;7.660;2022-12-11T08:15:58;-0.70;1.00
42841;DHT22;28491;46.898;7.660;2022-12-11T08:18:23;-0.60;1.00
42841;DHT22;28491;46.898;7.660;2022-12-11T08:20:49;-0.60;1.00
42841;DHT22;28491;46.898;7.660;2022-12-11T08:23:15;-0.30;1.00
42841;DHT22;28491;46.898;7.660;2022-12-11T08:25:40;0.60;1.00
42841;DHT22;28491;46.898;7.660;2022-12-11T08:28:06;0.90;1.00
42841;DHT22;28491;46.898;7.660;2022-12-11T08:30:32;1.40;1.00
42841;DHT22;28491;46.898;7.660;2022-12-11T08:32:58;1.10;1.00
42841;DHT22;28491;46.898;7.660;2022-12-11T08:35:24;1.90;1.00
42841;DHT22;28491;46.898;7.660;2022-12-11T08:37:50;2.60;1.00
42841;DHT22;28491;46.898;7.660;2022-12-11T08:40:15;3.00;1.00
42841;DHT22;28491;46.898;7.660;2022-12-11T08:42:41;3.50;1.00
42841;DHT22;28491;46.898;7.660;2022-12-11T08:45:07;4.00;1.00
42841;DHT22;28491;46.898;7.660;2022-12-11T08:47:32;4.50;1.00
42841;DHT22;28491;46.898;7.660;2022-12-11T08:49:58;3.70;1.00
42841;DHT22;28491;46.898;7.660;2022-12-11T08:52:23;3.20;1.00
42841;DHT22;28491;46.898;7.660;2022-12-11T08:54:49;2.70;1.00
42841;DHT22;28491;46.898;7.660;2022-12-11T08:57:14;2.80;1.00
42841;DHT22;28491;46.898;7.660;2022-12-11T08:59:40;1.80;1.00
42841;DHT22;28491;46.898;7.660;2022-12-11T09:02:06;0.60;1.00
42841;DHT22;28491;46.898;7.660;2022-12-11T09:04:31;0.10;1.00
42841;DHT22;28491;46.898;7.660;2022-12-11T09:06:57;0.60;1.00
42841;DHT22;28491;46.898;7.660;2022-12-11T09:09:23;0.20;1.00
42841;DHT22;28491;46.898;7.660;2022-12-11T09:11:48;1.50;1.00
42841;DHT22;28491;46.898;7.660;2022-12-11T09:14:14;2.30;1.00
42841;DHT22;28491;46.898;7.660;2022-12-11T09:16:41;2.70;1.00
42841;DHT22;28491;46.898;7.660;2022-12-11T09:19:09;1.30;1.00
42841;DHT22;28491;46.898;7.660;2022-12-11T09:21:35;-0.20;1.00
42841;DHT22;28491;46.898;7.660;2022-12-11T09:24:01;-0.70;1.00
42841;DHT22;28491;46.898;7.660;2022-12-11T09:26:28;-1.00;1.40
42841;DHT22;28491;46.898;7.660;2022-12-11T09:28:55;-1.20;1.00
42841;DHT22;28491;46.898;7.660;2022-12-11T09:31:23;-1.40;2.20
42841;DHT22;28491;46.898;7.660;2022-12-11T09:33:50;-1.50;1.70
42841;DHT22;28491;46.898;7.660;2022-12-11T09:36:18;-1.80;3.90
42841;DHT22;28491;46.898;7.660;2022-12-11T09:38:44;-1.90;7.80
42841;DHT22;28491;46.898;7.660;2022-12-11T09:43:51;-0.70;6.30
42841;DHT22;28491;46.898;7.660;2022-12-11T09:46:22;-0.60;2.60
42841;DHT22;28491;46.898;7.660;2022-12-11T09:48:49;-0.20;1.00
42841;DHT22;28491;46.898;7.660;2022-12-11T09:51:29;-0.10;1.00
42841;DHT22;28491;46.898;7.660;2022-12-11T09:54:02;0.40;1.00
42841;DHT22;28491;46.898;7.660;2022-12-11T09:56:50;-0.80;1.00
42841;DHT22;28491;46.898;7.660;2022-12-11T09:59:25;-1.40;1.00
42841;DHT22;28491;46.898;7.660;2022-12-11T10:02:14;-1.30;2.00
42841;DHT22;28491;46.898;7.660;2022-12-11T10:10:22;-1.80;1.60
42841;DHT22;28491;46.898;7.660;2022-12-11T10:13:05;-1.90;4.60
42841;DHT22;28491;46.898;7.660;2022-12-11T10:15:50;-2.10;7.00
42841;DHT22;28491;46.898;7.660;2022-12-11T10:18:19;-2.00;4.70
42841;DHT22;28491;46.898;7.660;2022-12-11T10:20:49;-2.00;5.70
42841;DHT22;28491;46.898;7.660;2022-12-11T10:23:18;-2.20;6.90
42841;DHT22;28491;46.898;7.660;2022-12-11T10:25:50;-2.10;7.70
42841;DHT22;28491;46.898;7.660;2022-12-11T10:28:19;-1.70;8.00
42841;DHT22;28491;46.898;7.660;2022-12-11T10:31:07;-1.40;8.50
42841;DHT22;28491;46.898;7.660;2022-12-11T10:33:49;-1.20;6.60
42841;DHT22;28491;46.898;7.660;2022-12-11T10:36:34;-1.40;3.00
42841;DHT22;28491;46.898;7.660;2022-12-11T10:39:02;-1.40;9.90
42841;DHT22;28491;46.898;7.660;2022-12-11T10:41:38;-1.30;12.30
42841;DHT22;28491;46.898;7.660;2022-12-11T10:46:46;-1.30;8.70
42841;DHT22;28491;46.898;7.660;2022-12-11T10:49:24;-1.30;13.90
42841;DHT22;28491;46.898;7.660;2022-12-11T10:51:51;-1.10;11.90
42841;DHT22;28491;46.898;7.660;2022-12-11T10:56:53;-1.30;8.00
42841;DHT22;28491;46.898;7.660;2022-12-11T10:59:39;-1.20;14.80
42841;DHT22;28491;46.898;7.660;2022-12-11T11:02:13;-1.20;12.70
42841;DHT22;28491;46.898;7.660;2022-12-11T11:04:42;-1.40;5.70
42841;DHT22;28491;46.898;7.660;2022-12-11T11:07:14;-1.30;10.40
42841;DHT22;28491;46.898;7.660;2022-12-11T11:09:41;-1.30;9.20
42841;DHT22;28491;46.898;7.660;2022-12-11T11:12:23;-1.30;6.50
42841;DHT22;28491;46.898;7.660;2022-12-11T11:15:01;-1.30;9.20
42841;DHT22;28491;46.898;7.660;2022-12-11T11:17:30;-1.40;10.20
42841;DHT22;28491;46.898;7.660;2022-12-11T11:20:03;-1.30;12.80
42841;DHT22;28491;46.898;7.660;2022-12-11T11:22:31;-1.20;12.10
42841;DHT22;28491;46.898;7.660;2022-12-11T11:24:58;-1.10;8.30
42841;DHT22;28491;46.898;7.660;2022-12-11T11:27:34;-1.00;14.40
42841;DHT22;28491;46.898;7.660;2022-12-11T11:30:06;-1.10;8.70
42841;DHT22;28491;46.898;7.660;2022-12-11T11:32:38;-1.00;15.00
42841;DHT22;28491;46.898;7.660;2022-12-11T11:37:37;-0.90;18.40
42841;DHT22;28491;46.898;7.660;2022-12-11T11:45:24;-0.50;19.90
42841;DHT22;28491;46.898;7.660;2022-12-11T11:48:28;-0.40;22.50
42841;DHT22;28491;46.898;7.660;2022-12-11T11:50:55;-0.50;16.10
42841;DHT22;28491;46.898;7.660;2022-12-11T11:53:32;-0.50;15.50
42841;DHT22;28491;46.898;7.660;2022-12-11T11:56:22;-0.70;6.00
42841;DHT22;28491;46.898;7.660;2022-12-11T11:58:58;-0.80;7.10
42841;DHT22;28491;46.898;7.660;2022-12-11T12:01:27;-0.50;22.90
42841;DHT22;28491;46.898;7.660;2022-12-11T12:03:53;-0.30;24.30
42841;DHT22;28491;46.898;7.660;2022-12-11T12:09:21;-0.50;17.10
42841;DHT22;28491;46.898;7.660;2022-12-11T12:14:29;-0.60;14.10
42841;DHT22;28491;46.898;7.660;2022-12-11T12:17:10;-0.60;21.90
42841;DHT22;28491;46.898;7.660;2022-12-11T12:19:55;-0.50;23.00
42841;DHT22;28491;46.898;7.660;2022-12-11T12:33:43;-1.30;26.10
42841;DHT22;28491;46.898;7.660;2022-12-11T12:42:15;-0.80;23.50
42841;DHT22;28491;46.898;7.660;2022-12-11T12:47:21;-0.70;25.80
42841;DHT22;28491;46.898;7.660;2022-12-11T12:49:49;-0.60;27.20
42841;DHT22;28491;46.898;7.660;2022-12-11T12:52:33;-0.60;29.60
42841;DHT22;28491;46.898;7.660;2022-12-11T12:55:06;-0.60;22.80
42841;DHT22;28491;46.898;7.660;2022-12-11T12:57:56;-0.70;19.90
42841;DHT22;28491;46.898;7.660;2022-12-11T13:00:42;-0.70;27.90
42841;DHT22;28491;46.898;7.660;2022-12-11T13:03:31;-0.70;22.80
42841;DHT22;28491;46.898;7.660;2022-12-11T13:08:39;-0.80;20.90
42841;DHT22;28491;46.898;7.660;2022-12-11T13:11:07;-0.80;20.60
42841;DHT22;28491;46.898;7.660;2022-12-11T13:18:41;-0.70;23.80
42841;DHT22;28491;46.898;7.660;2022-12-11T13:21:27;-0.80;20.30
42841;DHT22;28491;46.898;7.660;2022-12-11T13:23:54;-0.80;21.80
42841;DHT22;28491;46.898;7.660;2022-12-11T13:26:32;-0.70;22.00
42841;DHT22;28491;46.898;7.660;2022-12-11T13:28:58;-0.80;18.40
42841;DHT22;28491;46.898;7.660;2022-12-11T13:31:36;-1.00;17.00
42841;DHT22;28491;46.898;7.660;2022-12-11T13:34:20;-1.10;17.40
42841;DHT22;28491;46.898;7.660;2022-12-11T13:36:51;-1.20;23.00
42841;DHT22;28491;46.898;7.660;2022-12-11T13:39:28;-1.10;24.10
42841;DHT22;28491;46.898;7.660;2022-12-11T13:41:58;-1.20;21.80
42841;DHT22;28491;46.898;7.660;2022-12-11T13:44:30;-1.30;27.30
42841;DHT22;28491;46.898;7.660;2022-12-11T13:46:58;-1.20;27.00
42841;DHT22;28491;46.898;7.660;2022-12-11T13:49:27;-1.30;25.80
42841;DHT22;28491;46.898;7.660;2022-12-11T13:51:57;-1.30;24.30
42841;DHT22;28491;46.898;7.660;2022-12-11T13:54:24;-1.30;24.90
42841;DHT22;28491;46.898;7.660;2022-12-11T13:57:11;-1.30;25.50
42841;DHT22;28491;46.898;7.660;2022-12-11T13:59:45;-1.40;25.80
42841;DHT22;28491;46.898;7.660;2022-12-11T14:04:51;-1.30;25.00
42841;DHT22;28491;46.898;7.660;2022-12-11T14:07:23;-1.40;23.00
42841;DHT22;28491;46.898;7.660;2022-12-11T14:09:50;-1.50;29.50
42841;DHT22;28491;46.898;7.660;2022-12-11T14:12:20;-1.50;23.60
42841;DHT22;28491;46.898;7.660;2022-12-11T14:14:50;-1.70;20.40
42841;DHT22;28491;46.898;7.660;2022-12-11T14:17:23;-1.80;20.80
42841;DHT22;28491;46.898;7.660;2022-12-11T14:19:51;-1.80;23.10
42841;DHT22;28491;46.898;7.660;2022-12-11T14:22:20;-1.80;24.70
42841;DHT22;28491;46.898;7.660;2022-12-11T14:24:54;-1.80;26.70
42841;DHT22;28491;46.898;7.660;2022-12-11T14:27:20;-1.80;27.80
42841;DHT22;28491;46.898;7.660;2022-12-11T14:29:47;-1.80;29.50
42841;DHT22;28491;46.898;7.660;2022-12-11T14:34:44;-1.70;31.80
42841;DHT22;28491;46.898;7.660;2022-12-11T14:37:13;-1.70;32.90
42841;DHT22;28491;46.898;7.660;2022-12-11T14:39:45;-1.80;29.10
42841;DHT22;28491;46.898;7.660;2022-12-11T14:42:18;-2.00;27.80
42841;DHT22;28491;46.898;7.660;2022-12-11T14:44:55;-2.00;28.00
42841;DHT22;28491;46.898;7.660;2022-12-11T14:47:28;-2.20;25.10
42841;DHT22;28491;46.898;7.660;2022-12-11T14:50:50;-2.30;30.20
42841;DHT22;28491;46.898;7.660;2022-12-11T14:52:56;-2.40;32.20
42841;DHT22;28491;46.898;7.660;2022-12-11T14:55:27;-2.60;32.30
42841;DHT22;28491;46.898;7.660;2022-12-11T14:57:57;-2.80;33.00
42841;DHT22;28491;46.898;7.660;2022-12-11T15:00:28;-2.90;36.70
42841;DHT22;28491;46.898;7.660;2022-12-11T15:03:03;-2.80;38.90
42841;DHT22;28491;46.898;7.660;2022-12-11T15:05:29;-2.90;38.00
42841;DHT22;28491;46.898;7.660;2022-12-11T15:08:01;-2.90;43.20
42841;DHT22;28491;46.898;7.660;2022-12-11T15:10:40;-3.00;43.80
42841;DHT22;28491;46.898;7.660;2022-12-11T15:13:08;-3.10;46.50
42841;DHT22;28491;46.898;7.660;2022-12-11T15:15:46;-3.30;43.90
42841;DHT22;28491;46.898;7.660;2022-12-11T15:21:03;-3.60;46.60
42841;DHT22;28491;46.898;7.660;2022-12-11T15:23:32;-3.70;51.50
42841;DHT22;28491;46.898;7.660;2022-12-11T15:26:00;-3.70;53.10
42841;DHT22;28491;46.898;7.660;2022-12-11T15:28:33;-3.80;54.50
42841;DHT22;28491;46.898;7.660;2022-12-11T15:31:02;-3.80;58.00
42841;DHT22;28491;46.898;7.660;2022-12-11T15:33:28;-3.90;58.10
42841;DHT22;28491;46.898;7.660;2022-12-11T15:36:00;-3.90;58.30
42841;DHT22;28491;46.898;7.660;2022-12-11T15:40:56;-4.00;57.10
42841;DHT22;28491;46.898;7.660;2022-12-11T15:43:22;-4.00;56.60
42841;DHT22;28491;46.898;7.660;2022-12-11T15:45:48;-4.00;55.60
42841;DHT22;28491;46.898;7.660;2022-12-11T15:48:13;-4.20;50.40
42841;DHT22;28491;46.898;7.660;2022-12-11T15:50:39;-4.40;50.50
42841;DHT22;28491;46.898;7.660;2022-12-11T15:53:04;-4.50;53.10
42841;DHT22;28491;46.898;7.660;2022-12-11T15:55:30;-4.70;54.90
42841;DHT22;28491;46.898;7.660;2022-12-11T15:58:04;-4.90;53.80
42841;DHT22;28491;46.898;7.660;2022-12-11T16:00:31;-5.20;51.90
42841;DHT22;28491;46.898;7.660;2022-12-11T16:02:57;-5.50;55.10
42841;DHT22;28491;46.898;7.660;2022-12-11T16:05:23;-5.60;54.80
42841;DHT22;28491;46.898;7.660;2022-12-11T16:07:49;-5.80;54.40
42841;DHT22;28491;46.898;7.660;2022-12-11T16:10:19;-5.80;58.40
42841;DHT22;28491;46.898;7.660;2022-12-11T16:12:45;-5.60;61.20
42841;DHT22;28491;46.898;7.660;2022-12-11T16:15:12;-5.50;62.20
42841;DHT22;28491;46.898;7.660;2022-12-11T16:17:38;-5.40;62.00
42841;DHT22;28491;46.898;7.660;2022-12-11T16:20:05;-5.40;61.70
42841;DHT22;28491;46.898;7.660;2022-12-11T16:22:31;-5.30;62.30
42841;DHT22;28491;46.898;7.660;2022-12-11T16:24:57;-5.30;61.60
42841;DHT22;28491;46.898;7.660;2022-12-11T16:27:22;-5.30;60.40
42841;DHT22;28491;46.898;7.660;2022-12-11T16:29:48;-5.50;61.10
42841;DHT22;28491;46.898;7.660;2022-12-11T16:32:14;-5.90;60.50
42841;DHT22;28491;46.898;7.660;2022-12-11T16:34:39;-6.00;61.80
42841;DHT22;28491;46.898;7.660;2022-12-11T16:37:07;-6.10;62.10
42841;DHT22;28491;46.898;7.660;2022-12-11T16:39:33;-6.20;62.00
42841;DHT22;28491;46.898;7.660;2022-12-11T16:41:59;-6.20;62.80
42841;DHT22;28491;46.898;7.660;2022-12-11T16:44:25;-6.10;63.40
42841;DHT22;28491;46.898;7.660;2022-12-11T16:46:52;-6.00;63.60
42841;DHT22;28491;46.898;7.660;2022-12-11T16:49:18;-6.00;62.30
42841;DHT22;28491;46.898;7.660;2022-12-11T16:51:44;-5.90;63.10
42841;DHT22;28491;46.898;7.660;2022-12-11T16:54:10;-5.90;62.50
42841;DHT22;28491;46.898;7.660;2022-12-11T16:56:36;-5.70;64.40
42841;DHT22;28491;46.898;7.660;2022-12-11T16:59:03;-5.60;63.80
42841;DHT22;28491;46.898;7.660;2022-12-11T17:01:29;-5.60;63.70
42841;DHT22;28491;46.898;7.660;2022-12-11T17:03:54;-5.50;63.60
42841;DHT22;28491;46.898;7.660;2022-12-11T17:06:20;-5.60;62.60